createdAt,value
2017-04-13T00:00:28.576Z,83.40
2017-04-13T00:01:26.556Z,81.98
2017-04-13T00:02:24.480Z,83.03
2017-04-13T00:03:22.389Z,82.13
2017-04-13T00:04:20.216Z,80.82
2017-04-13T00:05:18.093Z,81.34
2017-04-13T00:06:15.943Z,81.13
2017-04-13T00:07:13.844Z,81.13
2017-04-13T00:08:12.167Z,81.71
2017-04-13T00:09:10.134Z,82.03
2017-04-13T00:10:08.021Z,80.97
2017-04-13T00:11:06.249Z,81.46
2017-04-13T00:12:04.128Z,81.68
2017-04-13T00:13:02.000Z,80.30
2017-04-13T00:13:59.892Z,82.56
2017-04-13T00:14:57.844Z,82.21
2017-04-13T00:15:55.778Z,83.36
2017-04-13T00:16:53.765Z,83.26
2017-04-13T00:17:51.655Z,83.24
2017-04-13T00:18:49.833Z,82.85
2017-04-13T00:19:47.685Z,82.05
2017-04-13T00:20:45.630Z,81.75
2017-04-13T00:21:43.457Z,80.94
2017-04-13T00:22:41.303Z,82.04
2017-04-13T00:23:39.191Z,82.59
2017-04-13T00:24:37.156Z,81.55
2017-04-13T00:25:35.009Z,80.76
2017-04-13T00:26:32.835Z,80.54
2017-04-13T00:27:30.733Z,81.66
2017-04-13T00:28:28.581Z,82.75
2017-04-13T00:29:26.448Z,82.33
2017-04-13T00:30:24.283Z,80.59
2017-04-13T00:31:22.311Z,79.81
2017-04-13T00:32:20.185Z,80.51
2017-04-13T00:33:18.038Z,80.37
2017-04-13T00:34:15.885Z,80.91
2017-04-13T00:35:13.715Z,81.11
2017-04-13T00:36:11.590Z,80.57
2017-04-13T00:37:09.424Z,80.26
2017-04-13T00:38:07.428Z,80.15
2017-04-13T00:39:05.455Z,80.36
2017-04-13T00:40:03.315Z,81.33
2017-04-13T00:41:01.865Z,80.67
2017-04-13T00:41:59.725Z,80.87
2017-04-13T00:42:57.563Z,80.46
2017-04-13T00:43:55.439Z,80.13
2017-04-13T00:44:53.272Z,80.21
2017-04-13T00:45:51.137Z,80.57
2017-04-13T00:46:49.809Z,81.23
2017-04-13T00:47:47.684Z,80.32
2017-04-13T00:48:45.545Z,80.84
2017-04-13T00:49:43.368Z,80.26
2017-04-13T00:50:41.248Z,80.93
2017-04-13T00:51:39.072Z,79.87
2017-04-13T00:52:36.938Z,79.54
2017-04-13T00:53:34.912Z,80.69
2017-04-13T00:54:33.381Z,81.21
2017-04-13T00:55:31.228Z,81.21
2017-04-13T00:56:29.545Z,80.39
2017-04-13T00:57:27.753Z,80.61
2017-04-13T00:58:26.336Z,80.18
2017-04-13T00:59:24.907Z,81.58
2017-04-13T01:00:22.785Z,81.40
2017-04-13T01:01:21.193Z,81.44
2017-04-13T01:02:19.194Z,80.19
2017-04-13T01:03:17.057Z,81.21
2017-04-13T01:04:14.955Z,81.78
2017-04-13T01:05:12.912Z,82.27
2017-04-13T01:06:11.355Z,82.54
2017-04-13T01:07:09.204Z,82.23
2017-04-13T01:08:08.270Z,81.93
2017-04-13T01:09:06.772Z,80.80
2017-04-13T01:10:04.847Z,80.56
2017-04-13T01:11:03.505Z,81.18
2017-04-13T01:12:01.669Z,82.56
2017-04-13T01:13:03.238Z,81.17
2017-04-13T01:14:01.655Z,81.56
2017-04-13T01:15:00.061Z,81.99
2017-04-13T01:15:58.578Z,82.37
2017-04-13T01:16:57.219Z,81.67
2017-04-13T01:17:55.291Z,80.69
2017-04-13T01:18:54.029Z,81.44
2017-04-13T01:19:52.485Z,83.07
2017-04-13T01:20:50.920Z,83.13
2017-04-13T01:21:48.987Z,81.38
2017-04-13T01:22:47.344Z,80.74
2017-04-13T01:23:48.294Z,81.03
2017-04-13T01:24:50.113Z,82.12
2017-04-13T01:25:48.391Z,81.29
2017-04-13T01:26:46.897Z,80.91
2017-04-13T01:27:45.212Z,82.31
2017-04-13T01:28:43.536Z,82.40
2017-04-13T01:29:41.348Z,81.18
2017-04-13T01:30:39.571Z,80.61
2017-04-13T01:31:37.686Z,79.91
2017-04-13T01:32:36.212Z,81.96
2017-04-13T01:33:34.047Z,80.91
2017-04-13T01:34:31.863Z,81.52
2017-04-13T01:35:29.676Z,81.39
2017-04-13T01:36:27.758Z,80.87
2017-04-13T01:37:25.651Z,80.47
2017-04-13T01:38:23.489Z,82.62
2017-04-13T01:39:21.485Z,81.91
2017-04-13T01:40:19.321Z,81.24
2017-04-13T01:41:17.204Z,81.05
2017-04-13T01:42:15.097Z,80.95
2017-04-13T01:43:13.085Z,80.84
2017-04-13T01:44:10.892Z,80.41
2017-04-13T01:45:08.713Z,80.47
2017-04-13T01:46:06.535Z,80.36
2017-04-13T01:47:04.432Z,80.36
2017-04-13T01:48:02.282Z,80.18
2017-04-13T01:49:00.105Z,81.56
2017-04-13T01:49:58.011Z,81.58
2017-04-13T01:50:55.817Z,81.60
2017-04-13T01:51:53.779Z,80.94
2017-04-13T01:52:51.692Z,81.31
2017-04-13T01:53:49.515Z,80.84
2017-04-13T01:54:47.493Z,81.85
2017-04-13T01:55:45.295Z,80.98
2017-04-13T01:56:43.296Z,80.01
2017-04-13T01:57:41.101Z,80.17
2017-04-13T01:58:39.030Z,81.30
2017-04-13T01:59:36.921Z,81.50
2017-04-13T02:00:35.044Z,81.62
2017-04-13T02:01:32.984Z,80.26
2017-04-13T02:02:31.014Z,80.81
2017-04-13T02:03:28.821Z,80.39
2017-04-13T02:04:26.668Z,82.36
2017-04-13T02:05:24.484Z,81.59
2017-04-13T02:06:22.305Z,79.98
2017-04-13T02:07:20.175Z,80.03
2017-04-13T02:08:18.001Z,80.97
2017-04-13T02:09:15.804Z,81.66
2017-04-13T02:10:13.676Z,82.21
2017-04-13T02:11:11.539Z,81.89
2017-04-13T02:12:09.407Z,81.84
2017-04-13T02:13:07.290Z,81.86
2017-04-13T02:14:05.112Z,80.58
2017-04-13T02:15:02.965Z,80.43
2017-04-13T02:16:00.795Z,81.17
2017-04-13T02:16:59.828Z,81.79
2017-04-13T02:18:00.808Z,82.45
2017-04-13T02:18:59.488Z,80.90
2017-04-13T02:19:58.507Z,81.36
2017-04-13T02:20:57.489Z,80.46
2017-04-13T02:21:56.809Z,81.30
2017-04-13T02:22:56.082Z,82.37
2017-04-13T02:23:55.287Z,81.41
2017-04-13T02:24:53.717Z,82.48
2017-04-13T02:25:52.475Z,80.82
2017-04-13T02:26:51.733Z,80.18
2017-04-13T02:27:50.817Z,79.21
2017-04-13T02:28:49.727Z,80.34
2017-04-13T02:29:47.827Z,80.74
2017-04-13T02:30:45.970Z,81.49
2017-04-13T02:31:50.045Z,81.99
2017-04-13T02:32:48.531Z,81.52
2017-04-13T02:33:47.086Z,81.33
2017-04-13T02:34:44.888Z,80.54
2017-04-13T02:35:43.227Z,81.71
2017-04-13T02:36:41.623Z,80.66
2017-04-13T02:37:39.420Z,80.89
2017-04-13T02:38:37.263Z,81.30
2017-04-13T02:39:35.332Z,80.58
2017-04-13T02:40:33.416Z,79.75
2017-04-13T02:41:32.174Z,80.32
2017-04-13T02:42:30.059Z,79.76
2017-04-13T02:43:27.935Z,79.57
2017-04-13T02:44:26.094Z,80.66
2017-04-13T02:45:24.368Z,80.93
2017-04-13T02:46:22.463Z,81.92
2017-04-13T02:47:20.777Z,82.13
2017-04-13T02:48:18.596Z,80.14
2017-04-13T02:49:16.737Z,81.34
2017-04-13T02:50:14.860Z,80.42
2017-04-13T02:51:13.574Z,80.21
2017-04-13T02:52:11.821Z,79.60
2017-04-13T02:53:09.855Z,80.55
2017-04-13T02:54:08.028Z,79.83
2017-04-13T02:55:05.917Z,79.51
2017-04-13T02:56:04.223Z,79.68
2017-04-13T02:57:02.049Z,82.07
2017-04-13T02:57:59.881Z,82.16
2017-04-13T02:58:57.791Z,82.17
2017-04-13T02:59:55.652Z,81.21
2017-04-13T03:00:53.478Z,80.90
2017-04-13T03:01:51.341Z,80.36
2017-04-13T03:02:49.212Z,80.82
2017-04-13T03:03:47.031Z,80.17
2017-04-13T03:04:44.905Z,82.03
2017-04-13T03:05:42.805Z,83.29
2017-04-13T03:06:40.640Z,83.09
2017-04-13T03:07:38.652Z,81.87
2017-04-13T03:08:36.445Z,82.84
2017-04-13T03:09:34.401Z,81.40
2017-04-13T03:10:32.217Z,81.10
2017-04-13T03:11:30.039Z,81.25
2017-04-13T03:12:27.864Z,81.43
2017-04-13T03:13:25.655Z,82.71
2017-04-13T03:14:23.597Z,82.69
2017-04-13T03:15:21.634Z,81.28
2017-04-13T03:16:19.481Z,81.67
2017-04-13T03:17:17.324Z,82.00
2017-04-13T03:18:15.140Z,80.80
2017-04-13T03:19:13.031Z,82.52
2017-04-13T03:20:10.850Z,82.42
2017-04-13T03:21:08.730Z,82.41
2017-04-13T03:22:06.649Z,81.50
2017-04-13T03:23:04.542Z,81.94
2017-04-13T03:24:02.411Z,81.32
2017-04-13T03:25:00.360Z,82.90
2017-04-13T03:25:58.181Z,82.82
2017-04-13T03:26:56.129Z,81.01
2017-04-13T03:27:54.037Z,83.14
2017-04-13T03:28:51.887Z,81.29
2017-04-13T03:29:49.731Z,80.28
2017-04-13T03:30:47.624Z,79.98
2017-04-13T03:31:45.555Z,80.38
2017-04-13T03:32:43.411Z,80.83
2017-04-13T03:33:41.332Z,81.06
2017-04-13T03:34:39.179Z,81.16
2017-04-13T03:35:36.981Z,80.29
2017-04-13T03:36:34.977Z,81.39
2017-04-13T03:37:33.055Z,80.65
2017-04-13T03:38:30.865Z,82.12
2017-04-13T03:39:28.666Z,82.84
2017-04-13T03:40:26.590Z,82.51
2017-04-13T03:41:24.610Z,83.23
2017-04-13T03:42:22.431Z,81.85
2017-04-13T03:43:20.226Z,81.21
2017-04-13T03:44:18.040Z,80.55
2017-04-13T03:45:15.964Z,82.14
2017-04-13T03:46:13.831Z,81.50
2017-04-13T03:47:11.737Z,82.83
2017-04-13T03:48:09.599Z,83.19
2017-04-13T03:49:07.456Z,83.72
2017-04-13T03:50:05.400Z,83.85
2017-04-13T03:51:03.271Z,81.72
2017-04-13T03:52:01.123Z,82.61
2017-04-13T03:52:59.007Z,81.51
2017-04-13T03:53:56.995Z,81.61
2017-04-13T03:54:54.845Z,80.80
2017-04-13T03:55:53.091Z,81.58
2017-04-13T03:56:50.919Z,81.06
2017-04-13T03:57:48.773Z,81.37
2017-04-13T03:58:46.604Z,80.98
2017-04-13T03:59:44.501Z,81.37
2017-04-13T04:00:42.367Z,82.69
2017-04-13T04:01:40.213Z,82.74
2017-04-13T04:02:38.045Z,83.36
2017-04-13T04:03:35.863Z,83.04
2017-04-13T04:04:33.655Z,82.73
2017-04-13T04:05:31.458Z,81.13
2017-04-13T04:06:29.260Z,83.07
2017-04-13T04:07:27.184Z,83.53
2017-04-13T04:08:25.145Z,81.69
2017-04-13T04:09:22.971Z,79.94
2017-04-13T04:10:20.895Z,80.62
2017-04-13T04:11:18.735Z,81.50
2017-04-13T04:12:16.600Z,81.11
2017-04-13T04:13:14.399Z,81.73
2017-04-13T04:14:12.408Z,81.19
2017-04-13T04:15:10.287Z,82.32
2017-04-13T04:16:08.127Z,82.33
2017-04-13T04:17:06.023Z,82.17
2017-04-13T04:18:03.848Z,83.26
2017-04-13T04:19:01.807Z,81.75
2017-04-13T04:19:59.644Z,81.11
2017-04-13T04:20:57.569Z,81.58
2017-04-13T04:21:55.653Z,82.53
2017-04-13T04:22:53.511Z,82.46
2017-04-13T04:23:51.344Z,83.33
2017-04-13T04:24:49.262Z,81.25
2017-04-13T04:25:47.100Z,82.34
2017-04-13T04:26:45.031Z,83.05
2017-04-13T04:27:42.866Z,81.50
2017-04-13T04:28:40.749Z,80.48
2017-04-13T04:29:38.557Z,80.65
2017-04-13T04:30:41.719Z,80.34
2017-04-13T04:31:45.143Z,81.45
2017-04-13T04:32:49.178Z,82.18
2017-04-13T04:33:47.220Z,80.97
2017-04-13T04:34:57.767Z,80.74
2017-04-13T04:35:55.608Z,81.26
2017-04-13T04:36:53.454Z,81.33
2017-04-13T04:37:51.273Z,81.69
2017-04-13T04:38:49.118Z,81.00
2017-04-13T04:39:46.960Z,81.16
2017-04-13T04:40:44.808Z,81.53
2017-04-13T04:41:42.987Z,83.05
2017-04-13T04:42:40.824Z,81.03
2017-04-13T04:43:38.700Z,83.10
2017-04-13T04:44:36.557Z,82.36
2017-04-13T04:45:34.419Z,82.29
2017-04-13T04:46:32.265Z,82.54
2017-04-13T04:47:30.195Z,81.20
2017-04-13T04:48:28.024Z,82.02
2017-04-13T04:49:25.835Z,82.87
2017-04-13T04:50:23.693Z,82.79
2017-04-13T04:51:21.524Z,82.37
2017-04-13T04:52:19.429Z,80.72
2017-04-13T04:53:17.287Z,81.27
2017-04-13T04:54:15.142Z,81.85
2017-04-13T04:55:13.045Z,83.40
2017-04-13T04:56:10.844Z,81.82
2017-04-13T04:57:08.851Z,82.87
2017-04-13T04:58:06.688Z,81.70
2017-04-13T04:59:04.497Z,81.47
2017-04-13T05:00:02.444Z,83.03
2017-04-13T05:01:00.613Z,83.09
2017-04-13T05:01:58.436Z,81.01
2017-04-13T05:02:56.235Z,81.69
2017-04-13T05:03:54.075Z,82.24
2017-04-13T05:04:54.164Z,81.33
2017-04-13T05:05:55.965Z,82.41
2017-04-13T05:06:55.490Z,82.34
2017-04-13T05:07:56.529Z,81.95
2017-04-13T05:08:56.459Z,81.71
2017-04-13T05:09:55.031Z,83.83
2017-04-13T05:10:52.905Z,83.38
2017-04-13T05:11:50.763Z,82.98
2017-04-13T05:12:48.599Z,81.96
2017-04-13T05:13:46.508Z,82.31
2017-04-13T05:14:44.392Z,80.83
2017-04-13T05:15:42.208Z,81.72
2017-04-13T05:16:40.057Z,83.02
2017-04-13T05:17:37.905Z,81.70
2017-04-13T05:18:35.750Z,81.83
2017-04-13T05:19:33.598Z,81.75
2017-04-13T05:20:31.527Z,81.13
2017-04-13T05:21:29.445Z,81.25
2017-04-13T05:22:27.371Z,81.02
2017-04-13T05:23:25.271Z,80.68
2017-04-13T05:24:23.119Z,82.11
2017-04-13T05:25:21.008Z,81.74
2017-04-13T05:26:18.860Z,82.77
2017-04-13T05:27:16.666Z,83.00
2017-04-13T05:28:14.541Z,80.83
2017-04-13T05:29:12.420Z,82.25
2017-04-13T05:30:10.367Z,82.60
2017-04-13T05:31:08.227Z,82.83
2017-04-13T05:32:06.081Z,80.76
2017-04-13T05:33:04.028Z,83.26
2017-04-13T05:34:01.953Z,83.62
2017-04-13T05:34:59.823Z,81.87
2017-04-13T05:35:57.678Z,81.83
2017-04-13T05:36:55.932Z,84.15
2017-04-13T05:37:53.842Z,82.03
2017-04-13T05:38:51.656Z,82.09
2017-04-13T05:39:49.528Z,81.94
2017-04-13T05:40:47.378Z,81.21
2017-04-13T05:41:45.247Z,81.59
2017-04-13T05:42:43.169Z,83.51
2017-04-13T05:43:41.075Z,81.76
2017-04-13T05:44:38.896Z,80.72
2017-04-13T05:45:36.749Z,81.30
2017-04-13T05:46:34.563Z,81.89
2017-04-13T05:47:32.442Z,81.42
2017-04-13T05:48:30.313Z,82.00
2017-04-13T05:49:28.324Z,80.98
2017-04-13T05:50:26.132Z,80.75
2017-04-13T05:51:24.040Z,80.20
2017-04-13T05:52:21.885Z,81.75
2017-04-13T05:53:19.698Z,81.76
2017-04-13T05:54:17.531Z,80.59
2017-04-13T05:55:15.401Z,80.96
2017-04-13T05:56:13.235Z,81.53
2017-04-13T05:57:11.067Z,82.23
2017-04-13T05:58:09.028Z,80.77
2017-04-13T05:59:06.889Z,81.72
2017-04-13T06:00:04.779Z,80.44
2017-04-13T06:01:02.621Z,80.31
2017-04-13T06:02:00.580Z,81.52
2017-04-13T06:02:58.468Z,81.57
2017-04-13T06:03:56.383Z,81.87
2017-04-13T06:04:54.305Z,81.89
2017-04-13T06:05:52.213Z,81.35
2017-04-13T06:06:50.093Z,82.43
2017-04-13T06:07:47.973Z,80.72
2017-04-13T06:08:46.180Z,81.07
2017-04-13T06:09:44.032Z,80.34
2017-04-13T06:10:41.865Z,79.90
2017-04-13T06:11:39.663Z,79.71
2017-04-13T06:12:37.477Z,80.83
2017-04-13T06:13:35.332Z,81.25
2017-04-13T06:14:33.199Z,81.84
2017-04-13T06:15:31.068Z,80.87
2017-04-13T06:16:28.873Z,80.06
2017-04-13T06:17:26.716Z,80.99
2017-04-13T06:18:24.492Z,80.31
2017-04-13T06:19:22.307Z,80.51
2017-04-13T06:20:20.305Z,80.43
2017-04-13T06:21:18.122Z,80.89
2017-04-13T06:22:16.046Z,80.04
2017-04-13T06:23:13.899Z,80.21
2017-04-13T06:24:11.738Z,79.55
2017-04-13T06:25:09.704Z,79.28
2017-04-13T06:26:07.583Z,80.21
2017-04-13T06:27:05.557Z,80.72
2017-04-13T06:28:03.407Z,80.47
2017-04-13T06:29:01.309Z,81.48
2017-04-13T06:29:59.167Z,80.12
2017-04-13T06:30:57.014Z,80.64
2017-04-13T06:31:54.906Z,81.37
2017-04-13T06:32:52.730Z,80.93
2017-04-13T06:33:50.708Z,80.65
2017-04-13T06:34:48.533Z,80.89
2017-04-13T06:35:46.469Z,80.71
2017-04-13T06:36:44.320Z,80.53
2017-04-13T06:37:42.135Z,79.96
2017-04-13T06:38:40.095Z,79.44
2017-04-13T06:39:37.932Z,79.50
2017-04-13T06:40:35.906Z,79.30
2017-04-13T06:41:33.751Z,79.68
2017-04-13T06:42:31.745Z,79.27
2017-04-13T06:43:29.591Z,80.63
2017-04-13T06:44:27.423Z,79.93
2017-04-13T06:45:25.317Z,79.45
2017-04-13T06:46:23.130Z,79.95
2017-04-13T06:47:21.160Z,79.93
2017-04-13T06:48:18.944Z,79.55
2017-04-13T06:49:16.925Z,79.47
2017-04-13T06:50:14.912Z,79.01
2017-04-13T06:51:12.761Z,78.69
2017-04-13T06:52:10.592Z,79.05
2017-04-13T06:53:08.397Z,79.86
2017-04-13T06:54:06.307Z,79.76
2017-04-13T06:55:04.209Z,78.54
2017-04-13T06:56:02.223Z,78.50
2017-04-13T06:57:00.040Z,79.20
2017-04-13T06:57:57.884Z,79.17
2017-04-13T06:58:55.773Z,77.65
2017-04-13T06:59:53.659Z,78.33
2017-04-13T07:00:51.520Z,78.86
2017-04-13T07:01:49.459Z,78.60
2017-04-13T07:02:53.688Z,78.51
2017-04-13T07:03:51.546Z,78.89
2017-04-13T07:04:49.376Z,78.68
2017-04-13T07:05:47.393Z,78.10
2017-04-13T07:06:45.338Z,78.49
2017-04-13T07:07:43.197Z,79.08
2017-04-13T07:08:41.078Z,78.49
2017-04-13T07:09:38.924Z,79.55
2017-04-13T07:10:36.724Z,79.05
2017-04-13T07:11:34.581Z,79.06
2017-04-13T07:12:32.578Z,78.31
2017-04-13T07:13:30.460Z,77.03
2017-04-13T07:14:28.319Z,78.18
2017-04-13T07:15:26.264Z,78.63
2017-04-13T07:16:24.107Z,77.91
2017-04-13T07:17:22.031Z,77.90
2017-04-13T07:18:19.867Z,77.50
2017-04-13T07:19:17.817Z,77.33
2017-04-13T07:20:15.645Z,78.08
2017-04-13T07:21:13.494Z,78.76
2017-04-13T07:22:11.383Z,78.29
2017-04-13T07:23:09.257Z,77.83
2017-04-13T07:24:07.179Z,77.81
2017-04-13T07:25:05.021Z,78.25
2017-04-13T07:26:02.936Z,78.49
2017-04-13T07:27:00.818Z,78.09
2017-04-13T07:27:58.690Z,77.70
2017-04-13T07:28:56.609Z,78.38
2017-04-13T07:29:54.479Z,77.91
2017-04-13T07:30:52.854Z,77.85
2017-04-13T07:31:50.628Z,77.70
2017-04-13T07:32:48.448Z,77.81
2017-04-13T07:33:46.289Z,77.38
2017-04-13T07:34:44.104Z,77.60
2017-04-13T07:35:41.983Z,77.43
2017-04-13T07:36:39.932Z,77.74
2017-04-13T07:37:37.756Z,77.13
2017-04-13T07:38:35.589Z,77.64
2017-04-13T07:39:33.491Z,77.48
2017-04-13T07:40:31.381Z,77.53
2017-04-13T07:41:29.194Z,76.94
2017-04-13T07:42:27.104Z,77.18
2017-04-13T07:43:24.935Z,77.26
2017-04-13T07:44:22.912Z,76.59
2017-04-13T07:45:20.713Z,76.77
2017-04-13T07:46:18.704Z,76.88
2017-04-13T07:47:16.535Z,76.19
2017-04-13T07:48:14.403Z,76.68
2017-04-13T07:49:12.384Z,76.23
2017-04-13T07:50:10.211Z,76.27
2017-04-13T07:51:08.110Z,76.71
2017-04-13T07:52:05.951Z,76.62
2017-04-13T07:53:04.050Z,76.99
2017-04-13T07:54:01.913Z,76.76
2017-04-13T07:54:59.760Z,76.44
2017-04-13T07:55:57.597Z,77.02
2017-04-13T07:56:55.519Z,76.54
2017-04-13T07:57:53.348Z,77.03
2017-04-13T07:58:51.180Z,77.19
2017-04-13T07:59:49.105Z,77.21
2017-04-13T08:00:47.039Z,76.79
2017-04-13T08:01:44.823Z,76.60
2017-04-13T08:02:42.708Z,76.39
2017-04-13T08:03:40.543Z,77.15
2017-04-13T08:04:38.477Z,76.86
2017-04-13T08:05:36.309Z,76.04
2017-04-13T08:06:34.312Z,76.40
2017-04-13T08:07:32.177Z,76.86
2017-04-13T08:08:30.056Z,77.67
2017-04-13T08:09:27.959Z,77.27
2017-04-13T08:10:25.777Z,76.70
2017-04-13T08:11:23.700Z,77.05
2017-04-13T08:12:21.550Z,76.26
2017-04-13T08:13:19.485Z,76.37
2017-04-13T08:14:17.388Z,76.80
2017-04-13T08:15:15.264Z,77.05
2017-04-13T08:16:13.109Z,77.17
2017-04-13T08:17:11.037Z,76.69
2017-04-13T08:18:08.883Z,76.23
2017-04-13T08:19:06.766Z,76.29
2017-04-13T08:20:04.752Z,76.49
2017-04-13T08:21:02.680Z,76.46
2017-04-13T08:22:00.529Z,76.58
2017-04-13T08:22:58.392Z,75.99
2017-04-13T08:23:56.275Z,75.55
2017-04-13T08:24:54.151Z,76.00
2017-04-13T08:25:51.992Z,75.45
2017-04-13T08:26:49.910Z,75.76
2017-04-13T08:27:47.734Z,76.06
2017-04-13T08:28:45.567Z,75.59
2017-04-13T08:29:43.516Z,76.23
2017-04-13T08:30:41.350Z,75.86
2017-04-13T08:31:39.243Z,75.70
2017-04-13T08:32:37.039Z,75.80
2017-04-13T08:33:35.160Z,75.35
2017-04-13T08:34:33.021Z,75.18
2017-04-13T08:35:30.877Z,75.41
2017-04-13T08:36:28.695Z,74.99
2017-04-13T08:37:26.519Z,74.99
2017-04-13T08:38:24.419Z,75.00
2017-04-13T08:39:22.292Z,74.73
2017-04-13T08:40:20.204Z,75.08
2017-04-13T08:41:18.063Z,74.83
2017-04-13T08:42:15.881Z,74.77
2017-04-13T08:43:13.877Z,75.04
2017-04-13T08:44:11.689Z,74.78
2017-04-13T08:45:09.735Z,74.91
2017-04-13T08:46:07.536Z,74.70
2017-04-13T08:47:05.509Z,75.02
2017-04-13T08:48:03.409Z,74.27
2017-04-13T08:49:01.280Z,74.52
2017-04-13T08:49:59.098Z,74.28
2017-04-13T08:50:56.939Z,74.19
2017-04-13T08:51:55.002Z,74.02
2017-04-13T08:52:52.858Z,73.16
2017-04-13T08:53:50.664Z,74.02
2017-04-13T08:54:48.520Z,74.30
2017-04-13T08:55:46.352Z,74.12
2017-04-13T08:56:44.300Z,74.20
2017-04-13T08:57:42.113Z,73.89
2017-04-13T08:58:40.016Z,73.86
2017-04-13T08:59:37.836Z,74.05
2017-04-13T09:00:35.868Z,73.69
2017-04-13T09:01:33.776Z,73.64
2017-04-13T09:02:31.596Z,73.52
2017-04-13T09:03:29.496Z,72.94
2017-04-13T09:04:27.319Z,71.47
2017-04-13T09:05:25.272Z,73.17
2017-04-13T09:06:23.132Z,71.78
2017-04-13T09:07:21.023Z,72.18
2017-04-13T09:08:18.872Z,72.15
2017-04-13T09:09:16.693Z,72.97
2017-04-13T09:10:14.675Z,73.22
2017-04-13T09:11:12.510Z,71.84
2017-04-13T09:12:10.418Z,72.42
2017-04-13T09:13:08.271Z,72.50
2017-04-13T09:14:06.200Z,72.29
2017-04-13T09:15:04.136Z,71.98
2017-04-13T09:16:02.076Z,71.56
2017-04-13T09:16:59.953Z,71.83
2017-04-13T09:17:57.780Z,71.59
2017-04-13T09:18:55.633Z,70.98
2017-04-13T09:19:53.515Z,70.52
2017-04-13T09:20:51.441Z,71.05
2017-04-13T09:21:49.289Z,71.61
2017-04-13T09:22:47.119Z,71.83
2017-04-13T09:23:45.060Z,70.88
2017-04-13T09:24:42.933Z,71.30
2017-04-13T09:25:40.792Z,70.59
2017-04-13T09:26:38.644Z,70.45
2017-04-13T09:27:36.656Z,70.82
2017-04-13T09:28:34.484Z,70.41
2017-04-13T09:29:32.330Z,70.07
2017-04-13T09:30:30.257Z,70.18
2017-04-13T09:31:28.139Z,69.55
2017-04-13T09:32:26.045Z,70.08
2017-04-13T09:33:23.912Z,69.99
2017-04-13T09:34:21.793Z,69.74
2017-04-13T09:35:19.647Z,69.90
2017-04-13T09:36:17.511Z,69.80
2017-04-13T09:37:15.462Z,70.34
2017-04-13T09:38:13.293Z,70.83
2017-04-13T09:39:11.247Z,70.59
2017-04-13T09:40:09.105Z,70.39
2017-04-13T09:41:07.083Z,69.94
2017-04-13T09:42:04.948Z,70.24
2017-04-13T09:43:02.768Z,70.47
2017-04-13T09:44:00.713Z,70.57
2017-04-13T09:44:58.539Z,71.04
2017-04-13T09:45:56.589Z,70.71
2017-04-13T09:46:54.443Z,70.39
2017-04-13T09:47:52.284Z,70.42
2017-04-13T09:48:50.163Z,70.35
2017-04-13T09:49:48.049Z,70.85
2017-04-13T09:50:45.982Z,69.59
2017-04-13T09:51:43.784Z,70.46
2017-04-13T09:52:41.607Z,70.12
2017-04-13T09:53:39.422Z,70.58
2017-04-13T09:54:37.226Z,70.99
2017-04-13T09:55:35.070Z,70.65
2017-04-13T09:56:32.885Z,70.00
2017-04-13T09:57:30.729Z,70.61
2017-04-13T09:58:28.584Z,70.36
2017-04-13T09:59:26.709Z,70.71
2017-04-13T10:00:24.560Z,70.68
2017-04-13T10:01:22.558Z,71.30
2017-04-13T10:02:20.388Z,70.18
2017-04-13T10:03:18.231Z,69.96
2017-04-13T10:04:16.076Z,69.92
2017-04-13T10:05:13.926Z,69.28
2017-04-13T10:06:11.781Z,69.71
2017-04-13T10:07:09.588Z,69.66
2017-04-13T10:08:07.476Z,69.13
2017-04-13T10:09:05.447Z,69.15
2017-04-13T10:10:03.248Z,68.98
2017-04-13T10:11:01.058Z,68.40
2017-04-13T10:11:58.908Z,69.40
2017-04-13T10:12:56.741Z,68.43
2017-04-13T10:13:54.580Z,68.79
2017-04-13T10:14:52.457Z,68.21
2017-04-13T10:15:50.288Z,68.52
2017-04-13T10:16:48.277Z,66.99
2017-04-13T10:17:46.135Z,67.95
2017-04-13T10:18:43.931Z,67.79
2017-04-13T10:19:41.886Z,67.68
2017-04-13T10:20:39.712Z,66.70
2017-04-13T10:21:37.790Z,66.21
2017-04-13T10:22:35.676Z,65.71
2017-04-13T10:23:33.597Z,65.82
2017-04-13T10:24:31.418Z,66.11
2017-04-13T10:25:29.215Z,65.21
2017-04-13T10:26:27.196Z,64.76
2017-04-13T10:27:25.023Z,65.35
2017-04-13T10:28:22.911Z,66.02
2017-04-13T10:29:20.754Z,65.46
2017-04-13T10:30:18.679Z,65.44
2017-04-13T10:31:16.543Z,64.25
2017-04-13T10:32:14.364Z,64.46
2017-04-13T10:33:12.315Z,64.83
2017-04-13T10:34:10.119Z,64.62
2017-04-13T10:35:08.101Z,63.96
2017-04-13T10:36:05.916Z,64.08
2017-04-13T10:37:03.928Z,63.18
2017-04-13T10:38:01.786Z,64.14
2017-04-13T10:38:59.768Z,64.17
2017-04-13T10:40:01.199Z,62.63
2017-04-13T10:40:59.297Z,63.75
2017-04-13T10:54:57.361Z,62.48
2017-04-13T10:55:55.204Z,62.17
2017-04-13T10:56:53.092Z,61.59
2017-04-13T10:57:51.137Z,62.30
2017-04-13T10:58:49.133Z,62.11
2017-04-13T10:59:47.023Z,62.35
2017-04-13T11:00:44.913Z,61.98
2017-04-13T11:01:42.755Z,62.31
2017-04-13T11:02:40.637Z,61.43
2017-04-13T11:03:38.497Z,60.27
2017-04-13T11:04:36.322Z,61.07
2017-04-13T11:05:34.214Z,60.81
2017-04-13T11:06:32.076Z,60.16
2017-04-13T11:07:29.893Z,59.97
2017-04-13T11:08:27.697Z,58.41
2017-04-13T11:09:25.580Z,58.44
2017-04-13T11:10:23.406Z,59.67
2017-04-13T11:11:24.063Z,59.59
2017-04-13T11:12:21.868Z,58.45
2017-04-13T11:13:19.777Z,56.58
2017-04-13T11:14:17.654Z,58.72
2017-04-13T11:15:15.628Z,58.56
2017-04-13T11:16:13.407Z,57.95
2017-04-13T11:17:11.454Z,58.05
2017-04-13T11:18:09.312Z,58.60
2017-04-13T11:19:07.105Z,57.67
2017-04-13T11:20:05.019Z,58.95
2017-04-13T11:21:02.826Z,58.96
2017-04-13T11:22:00.828Z,59.49
2017-04-13T11:22:58.707Z,59.16
2017-04-13T11:23:56.572Z,58.86
2017-04-13T11:24:54.403Z,58.60
2017-04-13T11:25:52.257Z,59.05
2017-04-13T11:26:50.156Z,58.58
2017-04-13T11:27:47.970Z,56.94
2017-04-13T11:28:45.934Z,58.75
2017-04-13T11:29:43.750Z,58.35
2017-04-13T11:30:41.712Z,57.42
2017-04-13T11:31:39.580Z,58.79
2017-04-13T11:32:37.409Z,57.72
2017-04-13T11:33:35.368Z,58.78
2017-04-13T11:34:33.533Z,58.70
2017-04-13T11:35:31.392Z,57.30
2017-04-13T11:36:29.236Z,58.71
2017-04-13T11:37:27.071Z,58.38
2017-04-13T11:38:24.904Z,58.56
2017-04-13T11:39:22.757Z,58.60
2017-04-13T11:40:20.627Z,57.90
2017-04-13T11:41:18.448Z,58.33
2017-04-13T11:42:16.304Z,57.66
2017-04-13T11:43:14.113Z,57.34
2017-04-13T11:44:12.067Z,56.37
2017-04-13T11:45:09.964Z,58.26
2017-04-13T11:46:07.850Z,57.99
2017-04-13T11:47:05.755Z,56.95
2017-04-13T11:48:03.635Z,57.47
2017-04-13T11:49:01.515Z,57.30
2017-04-13T11:49:59.361Z,57.35
2017-04-13T11:50:57.344Z,57.19
2017-04-13T11:51:55.200Z,57.51
2017-04-13T11:52:53.048Z,55.87
2017-04-13T11:53:50.906Z,57.64
2017-04-13T11:54:48.868Z,57.36
2017-04-13T11:55:46.673Z,57.84
2017-04-13T11:56:44.544Z,55.39
2017-04-13T11:57:42.549Z,57.38
2017-04-13T11:58:40.392Z,57.58
2017-04-13T11:59:38.244Z,58.05
2017-04-13T12:00:36.102Z,57.54
2017-04-13T12:01:33.953Z,55.70
2017-04-13T12:02:31.993Z,55.13
2017-04-13T12:03:29.856Z,57.47
2017-04-13T12:04:27.651Z,53.39
2017-04-13T12:05:25.508Z,55.82
2017-04-13T12:06:23.351Z,56.53
2017-04-13T12:07:21.168Z,54.96
2017-04-13T12:08:19.003Z,52.55
2017-04-13T12:09:16.844Z,55.83
2017-04-13T12:10:14.666Z,55.65
2017-04-13T12:11:12.586Z,55.70
2017-04-13T12:12:10.407Z,55.36
2017-04-13T12:13:08.316Z,55.20
2017-04-13T12:14:06.221Z,54.44
2017-04-13T12:15:04.169Z,54.19
2017-04-13T12:16:02.123Z,54.80
2017-04-13T12:16:59.976Z,54.37
2017-04-13T12:17:57.795Z,53.29
2017-04-13T12:18:55.691Z,54.88
2017-04-13T12:19:53.537Z,54.69
2017-04-13T12:20:51.419Z,55.00
2017-04-13T12:21:49.260Z,54.99
2017-04-13T12:22:47.093Z,53.79
2017-04-13T12:23:45.099Z,53.93
2017-04-13T12:24:42.900Z,54.77
2017-04-13T12:25:40.852Z,54.13
2017-04-13T12:26:38.684Z,55.14
2017-04-13T12:27:36.536Z,54.89
2017-04-13T12:28:34.464Z,56.20
2017-04-13T12:29:32.341Z,52.22
2017-04-13T12:30:30.184Z,53.38
2017-04-13T12:31:28.099Z,52.75
2017-04-13T12:32:25.925Z,53.85
2017-04-13T12:33:23.968Z,53.05
2017-04-13T12:34:21.862Z,54.06
2017-04-13T12:35:19.698Z,53.62
2017-04-13T12:36:17.548Z,53.21
2017-04-13T12:37:15.417Z,53.24
2017-04-13T12:38:13.288Z,54.38
2017-04-13T12:39:11.180Z,53.84
2017-04-13T12:40:09.179Z,53.39